sensor_id;sensor_type;location;lat;lon;timestamp;pressure;altitude;pressure_sealevel;temperature;humidity
57290;BME280;43523;53.022;-1.178;2023-04-06T00:00:07;100579.62;;;5.61;100.00
57290;BME280;43523;53.022;-1.178;2023-04-06T00:01:10;100580.27;;;4.86;100.00
57290;BME280;43523;53.022;-1.178;2023-04-06T00:02:13;100578.75;;;4.78;100.00
57290;BME280;43523;53.022;-1.178;2023-04-06T00:03:15;100579.85;;;4.33;100.00
57290;BME280;43523;53.022;-1.178;2023-04-06T00:04:18;100576.42;;;4.58;100.00
57290;BME280;43523;53.022;-1.178;2023-04-06T00:05:21;100575.69;;;4.97;100.00
57290;BME280;43523;53.022;-1.178;2023-04-06T00:06:23;100574.43;;;4.85;100.00
57290;BME280;43523;53.022;-1.178;2023-04-06T00:07:25;100572.37;;;5.07;100.00
57290;BME280;43523;53.022;-1.178;2023-04-06T00:08:28;100576.10;;;5.50;100.00
57290;BME280;43523;53.022;-1.178;2023-04-06T00:09:29;100573.29;;;4.87;100.00
57290;BME280;43523;53.022;-1.178;2023-04-06T00:10:32;100576.75;;;4.43;100.00
57290;BME280;43523;53.022;-1.178;2023-04-06T00:11:34;100576.72;;;4.60;100.00
57290;BME280;43523;53.022;-1.178;2023-04-06T00:12:36;100573.27;;;5.33;100.00
57290;BME280;43523;53.022;-1.178;2023-04-06T00:13:38;100571.03;;;4.84;100.00
57290;BME280;43523;53.022;-1.178;2023-04-06T00:14:40;100569.25;;;4.83;100.00
57290;BME280;43523;53.022;-1.178;2023-04-06T00:15:44;100571.35;;;4.57;100.00
57290;BME280;43523;53.022;-1.178;2023-04-06T00:16:46;100570.72;;;4.38;100.00
57290;BME280;43523;53.022;-1.178;2023-04-06T00:17:48;100566.28;;;5.10;100.00
57290;BME280;43523;53.022;-1.178;2023-04-06T00:18:50;100568.54;;;4.82;100.00
57290;BME280;43523;53.022;-1.178;2023-04-06T00:19:52;100565.04;;;4.66;100.00
57290;BME280;43523;53.022;-1.178;2023-04-06T00:20:55;100564.59;;;4.67;100.00
57290;BME280;43523;53.022;-1.178;2023-04-06T00:21:57;100561.43;;;4.37;100.00
57290;BME280;43523;53.022;-1.178;2023-04-06T00:22:59;100561.00;;;4.94;100.00
57290;BME280;43523;53.022;-1.178;2023-04-06T00:24:01;100556.83;;;4.79;100.00
57290;BME280;43523;53.022;-1.178;2023-04-06T00:25:05;100552.76;;;5.00;100.00
57290;BME280;43523;53.022;-1.178;2023-04-06T00:26:08;100554.43;;;5.20;100.00
57290;BME280;43523;53.022;-1.178;2023-04-06T00:27:10;100555.12;;;5.20;100.00
57290;BME280;43523;53.022;-1.178;2023-04-06T00:28:13;100549.70;;;5.19;100.00
57290;BME280;43523;53.022;-1.178;2023-04-06T00:29:16;100550.71;;;4.81;100.00
57290;BME280;43523;53.022;-1.178;2023-04-06T00:30:18;100551.81;;;4.87;100.00
57290;BME280;43523;53.022;-1.178;2023-04-06T00:31:21;100546.91;;;5.05;100.00
57290;BME280;43523;53.022;-1.178;2023-04-06T00:32:23;100551.08;;;4.37;100.00
57290;BME280;43523;53.022;-1.178;2023-04-06T00:33:25;100548.29;;;4.50;100.00
57290;BME280;43523;53.022;-1.178;2023-04-06T00:34:27;100545.84;;;4.25;100.00
57290;BME280;43523;53.022;-1.178;2023-04-06T00:35:29;100545.55;;;4.55;100.00
57290;BME280;43523;53.022;-1.178;2023-04-06T00:36:31;100543.26;;;4.22;100.00
57290;BME280;43523;53.022;-1.178;2023-04-06T00:37:34;100541.26;;;3.86;100.00
57290;BME280;43523;53.022;-1.178;2023-04-06T00:38:37;100539.92;;;4.42;100.00
57290;BME280;43523;53.022;-1.178;2023-04-06T00:39:39;100535.53;;;4.58;100.00
57290;BME280;43523;53.022;-1.178;2023-04-06T00:40:41;100535.88;;;4.90;100.00
57290;BME280;43523;53.022;-1.178;2023-04-06T00:41:48;100533.08;;;4.99;100.00
57290;BME280;43523;53.022;-1.178;2023-04-06T00:42:51;100532.51;;;5.14;100.00
57290;BME280;43523;53.022;-1.178;2023-04-06T00:43:54;100531.90;;;4.46;100.00
57290;BME280;43523;53.022;-1.178;2023-04-06T00:44:59;100531.82;;;4.98;100.00
57290;BME280;43523;53.022;-1.178;2023-04-06T00:46:01;100531.90;;;5.31;100.00
57290;BME280;43523;53.022;-1.178;2023-04-06T00:47:04;100529.37;;;5.05;100.00
57290;BME280;43523;53.022;-1.178;2023-04-06T00:48:07;100526.86;;;5.07;100.00
57290;BME280;43523;53.022;-1.178;2023-04-06T00:49:10;100525.17;;;4.78;100.00
57290;BME280;43523;53.022;-1.178;2023-04-06T00:50:12;100525.31;;;4.44;100.00
57290;BME280;43523;53.022;-1.178;2023-04-06T00:51:15;100528.63;;;4.24;100.00
57290;BME280;43523;53.022;-1.178;2023-04-06T00:52:17;100526.48;;;4.36;100.00
57290;BME280;43523;53.022;-1.178;2023-04-06T00:53:19;100524.67;;;4.43;100.00
57290;BME280;43523;53.022;-1.178;2023-04-06T00:54:22;100522.44;;;4.66;100.00
57290;BME280;43523;53.022;-1.178;2023-04-06T00:55:24;100518.80;;;4.90;100.00
57290;BME280;43523;53.022;-1.178;2023-04-06T00:56:26;100516.86;;;4.51;100.00
57290;BME280;43523;53.022;-1.178;2023-04-06T00:57:32;100516.17;;;4.68;100.00
57290;BME280;43523;53.022;-1.178;2023-04-06T00:58:34;100516.40;;;4.88;100.00
57290;BME280;43523;53.022;-1.178;2023-04-06T00:59:36;100513.30;;;4.49;100.00
57290;BME280;43523;53.022;-1.178;2023-04-06T01:00:39;100511.49;;;4.71;100.00
57290;BME280;43523;53.022;-1.178;2023-04-06T01:01:41;100515.48;;;4.33;100.00
57290;BME280;43523;53.022;-1.178;2023-04-06T01:02:44;100510.21;;;4.80;100.00
57290;BME280;43523;53.022;-1.178;2023-04-06T01:03:47;100509.82;;;4.39;100.00
57290;BME280;43523;53.022;-1.178;2023-04-06T01:04:51;100510.13;;;4.75;100.00
57290;BME280;43523;53.022;-1.178;2023-04-06T01:05:53;100506.75;;;4.86;100.00
57290;BME280;43523;53.022;-1.178;2023-04-06T01:06:55;100506.68;;;4.36;100.00
57290;BME280;43523;53.022;-1.178;2023-04-06T01:07:57;100508.02;;;5.15;100.00
57290;BME280;43523;53.022;-1.178;2023-04-06T01:09:00;100508.25;;;4.47;100.00
57290;BME280;43523;53.022;-1.178;2023-04-06T01:10:03;100504.17;;;4.40;100.00
57290;BME280;43523;53.022;-1.178;2023-04-06T01:11:06;100503.41;;;4.54;100.00
57290;BME280;43523;53.022;-1.178;2023-04-06T01:12:09;100503.34;;;5.03;100.00
57290;BME280;43523;53.022;-1.178;2023-04-06T01:13:11;100506.06;;;4.73;100.00
57290;BME280;43523;53.022;-1.178;2023-04-06T01:14:13;100501.09;;;4.93;100.00
57290;BME280;43523;53.022;-1.178;2023-04-06T01:15:15;100501.47;;;4.48;100.00
57290;BME280;43523;53.022;-1.178;2023-04-06T01:16:18;100501.24;;;5.02;100.00
57290;BME280;43523;53.022;-1.178;2023-04-06T01:17:21;100499.37;;;4.61;100.00
57290;BME280;43523;53.022;-1.178;2023-04-06T01:18:27;100495.69;;;4.66;100.00
57290;BME280;43523;53.022;-1.178;2023-04-06T01:19:29;100498.04;;;4.77;100.00
57290;BME280;43523;53.022;-1.178;2023-04-06T01:20:32;100493.32;;;4.60;100.00
57290;BME280;43523;53.022;-1.178;2023-04-06T01:21:34;100497.09;;;4.93;100.00
57290;BME280;43523;53.022;-1.178;2023-04-06T01:22:36;100495.22;;;4.69;100.00
57290;BME280;43523;53.022;-1.178;2023-04-06T01:23:38;100491.38;;;4.95;100.00
57290;BME280;43523;53.022;-1.178;2023-04-06T01:24:40;100490.10;;;4.96;100.00
57290;BME280;43523;53.022;-1.178;2023-04-06T01:25:44;100488.55;;;4.92;100.00
57290;BME280;43523;53.022;-1.178;2023-04-06T01:26:47;100486.62;;;4.54;100.00
57290;BME280;43523;53.022;-1.178;2023-04-06T01:27:49;100487.34;;;4.34;100.00
57290;BME280;43523;53.022;-1.178;2023-04-06T01:28:51;100482.98;;;4.82;100.00
57290;BME280;43523;53.022;-1.178;2023-04-06T01:30:00;100482.18;;;5.01;100.00
57290;BME280;43523;53.022;-1.178;2023-04-06T01:31:03;100477.74;;;4.64;100.00
57290;BME280;43523;53.022;-1.178;2023-04-06T01:32:05;100478.37;;;4.22;100.00
57290;BME280;43523;53.022;-1.178;2023-04-06T01:33:07;100475.58;;;3.91;100.00
57290;BME280;43523;53.022;-1.178;2023-04-06T01:34:10;100474.13;;;4.26;100.00
57290;BME280;43523;53.022;-1.178;2023-04-06T01:35:12;100473.86;;;4.50;100.00
57290;BME280;43523;53.022;-1.178;2023-04-06T01:36:15;100471.21;;;4.13;100.00
57290;BME280;43523;53.022;-1.178;2023-04-06T01:37:18;100468.15;;;4.33;100.00
57290;BME280;43523;53.022;-1.178;2023-04-06T01:38:20;100469.58;;;4.09;100.00
57290;BME280;43523;53.022;-1.178;2023-04-06T01:39:22;100469.11;;;4.37;100.00
57290;BME280;43523;53.022;-1.178;2023-04-06T01:40:24;100466.77;;;4.72;100.00
57290;BME280;43523;53.022;-1.178;2023-04-06T01:41:27;100465.61;;;4.94;100.00
57290;BME280;43523;53.022;-1.178;2023-04-06T01:42:29;100464.21;;;5.05;100.00
57290;BME280;43523;53.022;-1.178;2023-04-06T01:43:31;100462.24;;;4.57;100.00
57290;BME280;43523;53.022;-1.178;2023-04-06T01:44:34;100460.93;;;4.30;100.00
57290;BME280;43523;53.022;-1.178;2023-04-06T01:45:37;100459.60;;;4.86;100.00
57290;BME280;43523;53.022;-1.178;2023-04-06T01:46:40;100458.27;;;4.67;100.00
57290;BME280;43523;53.022;-1.178;2023-04-06T01:47:43;100456.90;;;4.98;100.00
57290;BME280;43523;53.022;-1.178;2023-04-06T01:48:46;100456.01;;;4.74;100.00
57290;BME280;43523;53.022;-1.178;2023-04-06T01:49:48;100453.58;;;5.09;100.00
57290;BME280;43523;53.022;-1.178;2023-04-06T01:50:50;100454.45;;;4.74;100.00
57290;BME280;43523;53.022;-1.178;2023-04-06T01:51:52;100453.68;;;4.90;100.00
57290;BME280;43523;53.022;-1.178;2023-04-06T01:52:55;100451.42;;;4.58;100.00
57290;BME280;43523;53.022;-1.178;2023-04-06T01:53:57;100453.09;;;4.45;100.00
57290;BME280;43523;53.022;-1.178;2023-04-06T01:54:59;100446.91;;;4.73;100.00
57290;BME280;43523;53.022;-1.178;2023-04-06T01:56:01;100445.64;;;4.54;100.00
57290;BME280;43523;53.022;-1.178;2023-04-06T01:57:04;100446.42;;;4.40;100.00
57290;BME280;43523;53.022;-1.178;2023-04-06T01:58:06;100445.58;;;4.26;100.00
57290;BME280;43523;53.022;-1.178;2023-04-06T01:59:09;100443.87;;;4.29;100.00
57290;BME280;43523;53.022;-1.178;2023-04-06T02:00:12;100440.51;;;4.96;100.00
57290;BME280;43523;53.022;-1.178;2023-04-06T02:01:14;100441.28;;;4.09;100.00
57290;BME280;43523;53.022;-1.178;2023-04-06T02:02:16;100439.57;;;4.05;100.00
57290;BME280;43523;53.022;-1.178;2023-04-06T02:03:19;100439.92;;;4.58;100.00
57290;BME280;43523;53.022;-1.178;2023-04-06T02:04:23;100435.99;;;4.80;100.00
57290;BME280;43523;53.022;-1.178;2023-04-06T02:05:25;100432.70;;;4.76;100.00
57290;BME280;43523;53.022;-1.178;2023-04-06T02:06:27;100431.33;;;4.53;100.00
57290;BME280;43523;53.022;-1.178;2023-04-06T02:07:29;100432.18;;;4.67;100.00
57290;BME280;43523;53.022;-1.178;2023-04-06T02:08:32;100435.62;;;4.56;100.00
57290;BME280;43523;53.022;-1.178;2023-04-06T02:09:35;100430.92;;;4.62;100.00
57290;BME280;43523;53.022;-1.178;2023-04-06T02:10:38;100432.48;;;4.78;100.00
57290;BME280;43523;53.022;-1.178;2023-04-06T02:11:40;100429.96;;;5.07;100.00
57290;BME280;43523;53.022;-1.178;2023-04-06T02:12:44;100430.48;;;4.75;100.00
57290;BME280;43523;53.022;-1.178;2023-04-06T02:13:46;100428.93;;;4.46;100.00
57290;BME280;43523;53.022;-1.178;2023-04-06T02:14:48;100429.38;;;4.29;100.00
57290;BME280;43523;53.022;-1.178;2023-04-06T02:15:50;100425.69;;;4.77;100.00
57290;BME280;43523;53.022;-1.178;2023-04-06T02:16:52;100424.24;;;4.32;100.00
57290;BME280;43523;53.022;-1.178;2023-04-06T02:17:55;100423.62;;;4.09;100.00
57290;BME280;43523;53.022;-1.178;2023-04-06T02:18:57;100423.47;;;4.65;100.00
57290;BME280;43523;53.022;-1.178;2023-04-06T02:20:00;100423.27;;;5.19;100.00
57290;BME280;43523;53.022;-1.178;2023-04-06T02:21:02;100422.71;;;5.15;100.00
57290;BME280;43523;53.022;-1.178;2023-04-06T02:22:04;100421.91;;;4.37;100.00
57290;BME280;43523;53.022;-1.178;2023-04-06T02:23:07;100419.04;;;4.84;100.00
57290;BME280;43523;53.022;-1.178;2023-04-06T02:24:09;100418.59;;;5.58;100.00
57290;BME280;43523;53.022;-1.178;2023-04-06T02:25:12;100413.42;;;4.76;100.00
57290;BME280;43523;53.022;-1.178;2023-04-06T02:26:14;100414.20;;;4.70;100.00
57290;BME280;43523;53.022;-1.178;2023-04-06T02:27:16;100413.04;;;4.53;100.00
57290;BME280;43523;53.022;-1.178;2023-04-06T02:28:19;100412.15;;;4.81;100.00
57290;BME280;43523;53.022;-1.178;2023-04-06T02:29:22;100410.43;;;4.80;100.00
57290;BME280;43523;53.022;-1.178;2023-04-06T02:30:24;100405.41;;;5.43;100.00
57290;BME280;43523;53.022;-1.178;2023-04-06T02:31:27;100407.56;;;5.05;100.00
57290;BME280;43523;53.022;-1.178;2023-04-06T02:32:29;100408.22;;;4.72;100.00
57290;BME280;43523;53.022;-1.178;2023-04-06T02:33:32;100408.08;;;4.42;100.00
57290;BME280;43523;53.022;-1.178;2023-04-06T02:34:34;100405.64;;;4.67;100.00
57290;BME280;43523;53.022;-1.178;2023-04-06T02:35:36;100404.07;;;4.78;100.00
57290;BME280;43523;53.022;-1.178;2023-04-06T02:36:38;100404.56;;;5.09;100.00
57290;BME280;43523;53.022;-1.178;2023-04-06T02:37:40;100402.20;;;4.63;100.00
57290;BME280;43523;53.022;-1.178;2023-04-06T02:38:43;100402.42;;;4.76;100.00
57290;BME280;43523;53.022;-1.178;2023-04-06T02:39:46;100401.99;;;4.50;100.00
57290;BME280;43523;53.022;-1.178;2023-04-06T02:40:49;100399.87;;;5.16;100.00
57290;BME280;43523;53.022;-1.178;2023-04-06T02:41:51;100398.20;;;5.04;100.00
57290;BME280;43523;53.022;-1.178;2023-04-06T02:42:54;100398.26;;;4.93;100.00
57290;BME280;43523;53.022;-1.178;2023-04-06T02:43:56;100397.32;;;4.79;100.00
57290;BME280;43523;53.022;-1.178;2023-04-06T02:44:58;100395.42;;;5.16;100.00
57290;BME280;43523;53.022;-1.178;2023-04-06T02:46:01;100394.31;;;4.44;100.00
57290;BME280;43523;53.022;-1.178;2023-04-06T02:47:03;100396.34;;;4.52;100.00
57290;BME280;43523;53.022;-1.178;2023-04-06T02:48:06;100393.93;;;4.35;100.00
57290;BME280;43523;53.022;-1.178;2023-04-06T02:49:08;100397.22;;;4.06;100.00
57290;BME280;43523;53.022;-1.178;2023-04-06T02:50:11;100393.42;;;3.98;100.00
57290;BME280;43523;53.022;-1.178;2023-04-06T02:51:13;100392.43;;;4.32;100.00
57290;BME280;43523;53.022;-1.178;2023-04-06T02:52:16;100395.01;;;4.81;100.00
57290;BME280;43523;53.022;-1.178;2023-04-06T02:53:18;100391.35;;;4.57;100.00
57290;BME280;43523;53.022;-1.178;2023-04-06T02:54:21;100394.84;;;4.84;100.00
57290;BME280;43523;53.022;-1.178;2023-04-06T02:55:23;100390.70;;;5.54;100.00
57290;BME280;43523;53.022;-1.178;2023-04-06T02:56:25;100387.43;;;5.49;100.00
57290;BME280;43523;53.022;-1.178;2023-04-06T02:57:27;100391.71;;;4.89;100.00
57290;BME280;43523;53.022;-1.178;2023-04-06T02:58:30;100389.06;;;4.58;100.00
57290;BME280;43523;53.022;-1.178;2023-04-06T02:59:32;100387.29;;;4.39;100.00
57290;BME280;43523;53.022;-1.178;2023-04-06T03:00:34;100384.81;;;4.43;100.00
57290;BME280;43523;53.022;-1.178;2023-04-06T03:01:36;100387.42;;;4.87;100.00
57290;BME280;43523;53.022;-1.178;2023-04-06T03:02:38;100385.89;;;4.75;100.00
57290;BME280;43523;53.022;-1.178;2023-04-06T03:03:40;100384.23;;;4.65;100.00
57290;BME280;43523;53.022;-1.178;2023-04-06T03:04:44;100382.89;;;5.06;100.00
57290;BME280;43523;53.022;-1.178;2023-04-06T03:05:46;100382.62;;;5.07;100.00
57290;BME280;43523;53.022;-1.178;2023-04-06T03:06:49;100381.71;;;4.61;100.00
57290;BME280;43523;53.022;-1.178;2023-04-06T03:07:51;100379.41;;;5.28;100.00
57290;BME280;43523;53.022;-1.178;2023-04-06T03:08:53;100380.99;;;5.34;100.00
57290;BME280;43523;53.022;-1.178;2023-04-06T03:09:56;100383.10;;;4.53;100.00
57290;BME280;43523;53.022;-1.178;2023-04-06T03:10:58;100382.77;;;4.12;100.00
57290;BME280;43523;53.022;-1.178;2023-04-06T03:12:00;100384.36;;;4.27;100.00
57290;BME280;43523;53.022;-1.178;2023-04-06T03:13:03;100383.63;;;4.55;100.00
57290;BME280;43523;53.022;-1.178;2023-04-06T03:14:06;100383.76;;;5.04;100.00
57290;BME280;43523;53.022;-1.178;2023-04-06T03:15:09;100380.83;;;4.82;100.00
57290;BME280;43523;53.022;-1.178;2023-04-06T03:16:12;100380.67;;;4.54;100.00
57290;BME280;43523;53.022;-1.178;2023-04-06T03:17:14;100377.72;;;4.56;100.00
57290;BME280;43523;53.022;-1.178;2023-04-06T03:18:20;100376.33;;;4.85;100.00
57290;BME280;43523;53.022;-1.178;2023-04-06T03:19:22;100373.65;;;4.02;100.00
57290;BME280;43523;53.022;-1.178;2023-04-06T03:20:25;100372.66;;;4.44;100.00
57290;BME280;43523;53.022;-1.178;2023-04-06T03:21:27;100371.79;;;5.04;100.00
57290;BME280;43523;53.022;-1.178;2023-04-06T03:22:29;100375.67;;;5.13;100.00
57290;BME280;43523;53.022;-1.178;2023-04-06T03:23:32;100372.27;;;5.23;100.00
57290;BME280;43523;53.022;-1.178;2023-04-06T03:24:34;100372.15;;;4.95;100.00
57290;BME280;43523;53.022;-1.178;2023-04-06T03:25:37;100371.78;;;5.29;100.00
57290;BME280;43523;53.022;-1.178;2023-04-06T03:26:39;100369.78;;;4.65;100.00
57290;BME280;43523;53.022;-1.178;2023-04-06T03:27:41;100368.08;;;4.99;100.00
57290;BME280;43523;53.022;-1.178;2023-04-06T03:28:44;100365.71;;;4.67;100.00
57290;BME280;43523;53.022;-1.178;2023-04-06T03:29:46;100366.19;;;5.32;100.00
57290;BME280;43523;53.022;-1.178;2023-04-06T03:30:49;100362.12;;;4.68;100.00
57290;BME280;43523;53.022;-1.178;2023-04-06T03:31:52;100361.58;;;4.56;100.00
57290;BME280;43523;53.022;-1.178;2023-04-06T03:32:54;100362.10;;;4.88;100.00
57290;BME280;43523;53.022;-1.178;2023-04-06T03:33:56;100365.10;;;4.74;100.00
57290;BME280;43523;53.022;-1.178;2023-04-06T03:34:59;100359.34;;;4.68;100.00
57290;BME280;43523;53.022;-1.178;2023-04-06T03:36:01;100358.90;;;4.81;100.00
57290;BME280;43523;53.022;-1.178;2023-04-06T03:37:04;100356.91;;;4.59;100.00
57290;BME280;43523;53.022;-1.178;2023-04-06T03:38:06;100354.47;;;4.60;100.00
57290;BME280;43523;53.022;-1.178;2023-04-06T03:39:09;100351.72;;;4.45;100.00
57290;BME280;43523;53.022;-1.178;2023-04-06T03:40:11;100352.61;;;4.74;100.00
57290;BME280;43523;53.022;-1.178;2023-04-06T03:41:14;100352.81;;;5.24;100.00
57290;BME280;43523;53.022;-1.178;2023-04-06T03:42:16;100350.17;;;4.81;100.00
57290;BME280;43523;53.022;-1.178;2023-04-06T03:43:18;100346.99;;;4.67;100.00
57290;BME280;43523;53.022;-1.178;2023-04-06T03:44:20;100347.74;;;5.02;100.00
57290;BME280;43523;53.022;-1.178;2023-04-06T03:45:23;100345.52;;;4.88;100.00
57290;BME280;43523;53.022;-1.178;2023-04-06T03:46:25;100346.51;;;4.87;100.00
57290;BME280;43523;53.022;-1.178;2023-04-06T03:47:27;100344.66;;;4.88;100.00
57290;BME280;43523;53.022;-1.178;2023-04-06T03:48:29;100344.32;;;4.97;100.00
57290;BME280;43523;53.022;-1.178;2023-04-06T03:49:31;100343.10;;;5.14;100.00
57290;BME280;43523;53.022;-1.178;2023-04-06T03:50:39;100340.27;;;4.76;100.00
57290;BME280;43523;53.022;-1.178;2023-04-06T03:51:41;100338.81;;;4.24;100.00
57290;BME280;43523;53.022;-1.178;2023-04-06T03:52:44;100336.94;;;4.52;100.00
57290;BME280;43523;53.022;-1.178;2023-04-06T03:53:46;100340.09;;;4.83;100.00
57290;BME280;43523;53.022;-1.178;2023-04-06T03:54:48;100345.90;;;4.64;100.00
57290;BME280;43523;53.022;-1.178;2023-04-06T03:55:51;100341.81;;;5.10;100.00
57290;BME280;43523;53.022;-1.178;2023-04-06T03:56:53;100341.96;;;5.52;100.00
57290;BME280;43523;53.022;-1.178;2023-04-06T03:57:55;100342.18;;;5.33;100.00
57290;BME280;43523;53.022;-1.178;2023-04-06T03:58:57;100341.23;;;5.17;100.00
57290;BME280;43523;53.022;-1.178;2023-04-06T04:00:00;100341.18;;;5.21;100.00
57290;BME280;43523;53.022;-1.178;2023-04-06T04:01:02;100338.69;;;5.65;100.00
57290;BME280;43523;53.022;-1.178;2023-04-06T04:02:04;100338.89;;;4.72;100.00
57290;BME280;43523;53.022;-1.178;2023-04-06T04:03:06;100341.93;;;5.16;100.00
57290;BME280;43523;53.022;-1.178;2023-04-06T04:04:09;100339.67;;;4.70;100.00
57290;BME280;43523;53.022;-1.178;2023-04-06T04:05:11;100339.68;;;4.27;100.00
57290;BME280;43523;53.022;-1.178;2023-04-06T04:06:14;100337.49;;;5.07;100.00
57290;BME280;43523;53.022;-1.178;2023-04-06T04:07:17;100339.97;;;4.70;100.00
57290;BME280;43523;53.022;-1.178;2023-04-06T04:08:20;100338.38;;;4.64;100.00
57290;BME280;43523;53.022;-1.178;2023-04-06T04:09:22;100335.93;;;4.68;100.00
57290;BME280;43523;53.022;-1.178;2023-04-06T04:10:24;100339.04;;;5.48;100.00
57290;BME280;43523;53.022;-1.178;2023-04-06T04:11:27;100329.23;;;5.47;100.00
57290;BME280;43523;53.022;-1.178;2023-04-06T04:12:29;100331.42;;;5.02;100.00
57290;BME280;43523;53.022;-1.178;2023-04-06T04:13:31;100332.75;;;4.86;100.00
57290;BME280;43523;53.022;-1.178;2023-04-06T04:14:33;100330.49;;;4.92;100.00
57290;BME280;43523;53.022;-1.178;2023-04-06T04:15:35;100331.89;;;4.88;100.00
57290;BME280;43523;53.022;-1.178;2023-04-06T04:16:37;100329.09;;;4.55;100.00
57290;BME280;43523;53.022;-1.178;2023-04-06T04:17:39;100325.67;;;5.06;100.00
57290;BME280;43523;53.022;-1.178;2023-04-06T04:18:41;100320.47;;;5.30;100.00
57290;BME280;43523;53.022;-1.178;2023-04-06T04:19:44;100321.22;;;5.51;100.00
57290;BME280;43523;53.022;-1.178;2023-04-06T04:20:46;100320.23;;;5.17;100.00
57290;BME280;43523;53.022;-1.178;2023-04-06T04:21:49;100319.94;;;4.76;100.00
57290;BME280;43523;53.022;-1.178;2023-04-06T04:22:51;100315.58;;;5.18;100.00
57290;BME280;43523;53.022;-1.178;2023-04-06T04:23:54;100316.12;;;5.00;100.00
57290;BME280;43523;53.022;-1.178;2023-04-06T04:24:56;100315.81;;;4.78;100.00
57290;BME280;43523;53.022;-1.178;2023-04-06T04:25:58;100310.62;;;5.08;100.00
57290;BME280;43523;53.022;-1.178;2023-04-06T04:27:00;100309.04;;;4.75;100.00
57290;BME280;43523;53.022;-1.178;2023-04-06T04:28:03;100310.16;;;4.54;100.00
57290;BME280;43523;53.022;-1.178;2023-04-06T04:29:06;100306.92;;;5.11;100.00
57290;BME280;43523;53.022;-1.178;2023-04-06T04:30:08;100303.97;;;4.99;100.00
57290;BME280;43523;53.022;-1.178;2023-04-06T04:31:11;100305.76;;;4.46;100.00
57290;BME280;43523;53.022;-1.178;2023-04-06T04:32:13;100308.83;;;4.53;100.00
57290;BME280;43523;53.022;-1.178;2023-04-06T04:33:15;100299.14;;;5.00;100.00
57290;BME280;43523;53.022;-1.178;2023-04-06T04:34:18;100297.17;;;4.80;100.00
57290;BME280;43523;53.022;-1.178;2023-04-06T04:35:21;100296.28;;;5.33;100.00
57290;BME280;43523;53.022;-1.178;2023-04-06T04:36:23;100292.53;;;5.20;100.00
57290;BME280;43523;53.022;-1.178;2023-04-06T04:37:25;100292.27;;;5.13;100.00
57290;BME280;43523;53.022;-1.178;2023-04-06T04:38:28;100287.93;;;5.07;100.00
57290;BME280;43523;53.022;-1.178;2023-04-06T04:39:30;100284.49;;;5.08;100.00
57290;BME280;43523;53.022;-1.178;2023-04-06T04:40:33;100285.71;;;5.51;100.00
57290;BME280;43523;53.022;-1.178;2023-04-06T04:41:35;100285.57;;;5.28;100.00
57290;BME280;43523;53.022;-1.178;2023-04-06T04:42:37;100282.38;;;6.16;100.00
57290;BME280;43523;53.022;-1.178;2023-04-06T04:43:39;100281.91;;;5.81;100.00
57290;BME280;43523;53.022;-1.178;2023-04-06T04:44:41;100280.73;;;5.77;100.00
57290;BME280;43523;53.022;-1.178;2023-04-06T04:45:44;100277.65;;;5.92;100.00
57290;BME280;43523;53.022;-1.178;2023-04-06T04:46:46;100272.65;;;5.97;100.00
57290;BME280;43523;53.022;-1.178;2023-04-06T04:47:48;100275.16;;;6.29;100.00
57290;BME280;43523;53.022;-1.178;2023-04-06T04:48:51;100277.29;;;6.12;100.00
57290;BME280;43523;53.022;-1.178;2023-04-06T04:49:53;100279.06;;;6.40;100.00
57290;BME280;43523;53.022;-1.178;2023-04-06T04:50:55;100281.11;;;6.13;100.00
57290;BME280;43523;53.022;-1.178;2023-04-06T04:51:58;100287.16;;;6.34;100.00
57290;BME280;43523;53.022;-1.178;2023-04-06T04:53:00;100287.85;;;6.31;100.00
57290;BME280;43523;53.022;-1.178;2023-04-06T04:54:03;100288.05;;;6.03;100.00
57290;BME280;43523;53.022;-1.178;2023-04-06T04:55:06;100291.67;;;6.05;100.00
57290;BME280;43523;53.022;-1.178;2023-04-06T04:56:09;100292.37;;;5.25;100.00
57290;BME280;43523;53.022;-1.178;2023-04-06T04:57:11;100291.18;;;5.08;100.00
57290;BME280;43523;53.022;-1.178;2023-04-06T04:58:13;100291.45;;;4.86;100.00
57290;BME280;43523;53.022;-1.178;2023-04-06T04:59:15;100291.07;;;5.44;100.00
57290;BME280;43523;53.022;-1.178;2023-04-06T05:00:18;100291.47;;;4.71;100.00
57290;BME280;43523;53.022;-1.178;2023-04-06T05:01:20;100291.63;;;4.75;100.00
57290;BME280;43523;53.022;-1.178;2023-04-06T05:02:23;100291.11;;;4.98;100.00
57290;BME280;43523;53.022;-1.178;2023-04-06T05:03:26;100293.02;;;4.94;100.00
57290;BME280;43523;53.022;-1.178;2023-04-06T05:04:28;100295.22;;;4.92;100.00
57290;BME280;43523;53.022;-1.178;2023-04-06T05:05:31;100294.71;;;4.55;100.00
57290;BME280;43523;53.022;-1.178;2023-04-06T05:06:33;100295.16;;;5.11;100.00
57290;BME280;43523;53.022;-1.178;2023-04-06T05:07:35;100292.08;;;5.09;100.00
57290;BME280;43523;53.022;-1.178;2023-04-06T05:08:37;100290.59;;;4.63;100.00
57290;BME280;43523;53.022;-1.178;2023-04-06T05:09:39;100288.65;;;4.76;100.00
57290;BME280;43523;53.022;-1.178;2023-04-06T05:10:43;100282.88;;;5.37;100.00
57290;BME280;43523;53.022;-1.178;2023-04-06T05:11:46;100278.18;;;5.63;100.00
57290;BME280;43523;53.022;-1.178;2023-04-06T05:12:48;100274.99;;;5.55;100.00
57290;BME280;43523;53.022;-1.178;2023-04-06T05:13:50;100269.24;;;5.96;100.00
57290;BME280;43523;53.022;-1.178;2023-04-06T05:14:53;100271.52;;;6.14;100.00
57290;BME280;43523;53.022;-1.178;2023-04-06T05:15:55;100275.25;;;6.71;100.00
57290;BME280;43523;53.022;-1.178;2023-04-06T05:16:57;100280.47;;;5.38;100.00
57290;BME280;43523;53.022;-1.178;2023-04-06T05:17:59;100279.80;;;5.61;100.00
57290;BME280;43523;53.022;-1.178;2023-04-06T05:19:02;100280.25;;;6.15;100.00
57290;BME280;43523;53.022;-1.178;2023-04-06T05:20:05;100281.68;;;5.18;100.00
57290;BME280;43523;53.022;-1.178;2023-04-06T05:21:08;100282.12;;;4.58;100.00
57290;BME280;43523;53.022;-1.178;2023-04-06T05:22:10;100285.70;;;4.81;100.00